< Typhoon 200415 2004 Season Typhoon 200417 >
Typhoon 200416 (CHABA)
General InformationTrack Information on Google MapsDetailed Wind InformationAccess Analytics MapList of All Images || NewsDisaster Info.WeblogTrackbackTyphoon FrontResourceGoogle EarthGE AnimationAtom FeedGeoJSON
Detalied Best Track (Time Zone = UTC)
Year Month Day Hour Lat. Long. Pressure (hPa) Wind (kt) Class Image Chart
2004 8 18 06 11.2 165.0 1004 0 2 Image Chart
2004 8 18 12 11.3 163.8 1004 0 2 Image Chart
2004 8 18 18 11.8 163.0 1002 0 2 Image Chart
2004 8 19 00 12.3 162.0 1002 0 2 Image Chart
2004 8 19 06 12.8 161.3 1000 0 2 Image Chart
2004 8 19 12 13.1 160.4 996 35 3 Image Chart
2004 8 19 18 13.6 159.1 990 45 3 Image Chart
2004 8 20 00 13.9 158.1 990 50 4 Image Chart
2004 8 20 06 14.1 156.9 990 50 4 Image Chart
2004 8 20 12 14.4 155.4 985 50 4 Image Chart
2004 8 20 18 14.5 154.2 985 50 4 Image Chart
2004 8 21 00 14.5 152.8 985 50 4 Image Chart
2004 8 21 06 14.4 151.6 985 50 4 Image Chart
2004 8 21 12 14.2 150.1 975 60 4 Image Chart
2004 8 21 18 14.2 148.6 960 75 5 Image Chart
2004 8 22 00 14.3 147.5 955 75 5 Image Chart
2004 8 22 06 14.4 146.4 950 80 5 Image Chart
2004 8 22 12 14.5 145.6 930 100 5 Image Chart
2004 8 22 18 14.8 144.8 920 110 5 Image Chart
2004 8 23 00 15.2 143.6 920 110 5 Image Chart
2004 8 23 06 15.6 142.9 915 110 5 Image Chart
2004 8 23 12 16.4 142.1 915 110 5 Image Chart
2004 8 23 18 17.1 141.1 910 110 5 Image Chart
2004 8 24 00 17.4 140.2 910 110 5 Image Chart
2004 8 24 06 18.0 139.6 910 110 5 Image Chart
2004 8 24 12 18.5 139.2 910 110 5 Image Chart
2004 8 24 18 19.4 138.7 910 110 5 Image Chart
2004 8 25 00 20.4 138.2 910 110 5 Image Chart
2004 8 25 06 21.2 137.6 910 110 5 Image Chart
2004 8 25 12 21.9 137.2 910 110 5 Image Chart
2004 8 25 18 22.5 136.8 910 110 5 Image Chart
2004 8 26 00 23.5 136.3 915 100 5 Image Chart
2004 8 26 06 24.2 135.9 920 100 5 Image Chart
2004 8 26 12 24.7 135.4 925 90 5 Image Chart
2004 8 26 18 25.5 135.1 930 80 5 Image Chart
2004 8 27 00 26.1 134.9 940 80 5 Image Chart
2004 8 27 06 26.6 134.6 940 80 5 Image Chart
2004 8 27 12 26.8 134.4 940 80 5 Image Chart
2004 8 27 18 27.1 134.2 935 90 5 Image Chart
2004 8 28 00 27.2 133.9 935 90 5 Image Chart
2004 8 28 03 27.3 133.7 935 90 5 Image Chart
2004 8 28 06 27.4 133.6 935 90 5 Image Chart
2004 8 28 09 27.6 133.3 935 90 5 Image Chart
2004 8 28 12 27.6 132.9 940 85 5 Image Chart
2004 8 28 15 27.6 132.6 940 85 5 Image Chart
2004 8 28 18 27.8 132.1 940 85 5 Image Chart
2004 8 28 21 27.9 131.6 940 85 5 Image Chart
2004 8 29 00 28.0 131.0 940 85 5 Image Chart
2004 8 29 03 28.3 130.7 940 85 5 Image Chart
2004 8 29 06 28.7 130.3 940 85 5 Image Chart
2004 8 29 09 29.0 130.1 940 85 5 Image Chart
2004 8 29 12 29.3 129.9 940 80 5 Image Chart
2004 8 29 15 29.8 129.8 945 80 5 Image Chart
2004 8 29 18 30.3 129.8 945 80 5 Image Chart
2004 8 29 21 30.9 130.0 950 80 5 Image Chart
2004 8 30 00 31.5 130.2 950 80 5 Image Chart
2004 8 30 03 32.5 130.5 955 80 5 Image Chart
2004 8 30 06 33.5 131.0 965 70 5 Image Chart
2004 8 30 08 33.9 131.4 965 70 5 Image Chart
2004 8 30 09 34.1 131.7 965 70 5 Image Chart
2004 8 30 12 35.2 133.2 970 60 4 Image Chart
2004 8 30 15 36.4 135.0 970 60 4 Image Chart
2004 8 30 18 37.5 136.2 975 60 4 Image Chart
2004 8 30 21 38.8 137.6 975 60 4 Image Chart
2004 8 31 00 40.3 139.3 975 60 4 Image Chart
2004 8 31 03 41.4 140.5 975 60 4 Image Chart
2004 8 31 06 43.9 143.2 976 0 6 Image Chart
2004 8 31 12 46.0 145.0 976 0 6 Image Chart
2004 8 31 18 48.1 145.5 980 0 6 Image Chart
2004 9 1 00 49.7 145.3 980 0 6 Image Chart
2004 9 1 06 50.7 145.7 976 0 6 Image Chart
2004 9 1 12 51.5 146.0 984 0 6 Image Chart
2004 9 1 18 52.4 146.5 984 0 6 Image Chart
2004 9 2 00 53.1 146.1 986 0 6 Image Chart
2004 9 2 06 53.9 145.7 988 0 6 Image Chart
2004 9 2 12 54.6 146.1 990 0 6 Image Chart
2004 9 2 18 55.8 146.6 990 0 6 Image Chart
2004 9 3 00 56.4 147.3 990 0 6 Image Chart
2004 9 3 06 57.2 148.2 990 0 6 Image Chart
2004 9 3 12 57.8 149.7 992 0 6 Image Chart
2004 9 3 18 58.6 150.9 994 0 6 Image Chart
2004 9 4 00 59.2 150.0 994 0 6 Image Chart
2004 9 4 06 60.1 149.3 996 0 6 Image Chart
2004 9 4 12 59.2 148.8 998 0 6 Image Chart
2004 9 4 18 58.8 149.8 998 0 6 Image Chart
2004 9 5 00 59.0 150.0 1000 0 6 Image Chart
2004 9 5 06 59.1 150.7 1002 0 6 Image Chart
2004 9 5 12 59.3 151.7 1006 0 6 Image Chart
Japan Meteorological Agency Best Track Data | Correction Date : 2006-01-18
< Typhoon 200415 2004 Season Typhoon 200417 >

Help